sensor_id;sensor_type;location;lat;lon;timestamp;P1;durP1;ratioP1;P2;durP2;ratioP2
48516;SDS011;34310;51.904;4.256;2023-05-15T00:00:03;5.30;;;4.90;;
48516;SDS011;34310;51.904;4.256;2023-05-15T00:02:31;5.30;;;4.80;;
48516;SDS011;34310;51.904;4.256;2023-05-15T00:05:00;5.28;;;4.78;;
48516;SDS011;34310;51.904;4.256;2023-05-15T00:07:27;5.43;;;4.88;;
48516;SDS011;34310;51.904;4.256;2023-05-15T00:09:54;5.13;;;4.72;;
48516;SDS011;34310;51.904;4.256;2023-05-15T00:12:22;5.45;;;5.00;;
48516;SDS011;34310;51.904;4.256;2023-05-15T00:14:49;5.53;;;5.03;;
48516;SDS011;34310;51.904;4.256;2023-05-15T00:17:16;5.72;;;5.18;;
48516;SDS011;34310;51.904;4.256;2023-05-15T00:19:44;5.85;;;5.32;;
48516;SDS011;34310;51.904;4.256;2023-05-15T00:22:11;5.63;;;5.13;;
48516;SDS011;34310;51.904;4.256;2023-05-15T00:24:38;5.20;;;4.80;;
48516;SDS011;34310;51.904;4.256;2023-05-15T00:27:06;5.57;;;5.13;;
48516;SDS011;34310;51.904;4.256;2023-05-15T00:29:33;5.55;;;5.05;;
48516;SDS011;34310;51.904;4.256;2023-05-15T00:32:00;6.28;;;5.68;;
48516;SDS011;34310;51.904;4.256;2023-05-15T00:34:28;5.90;;;5.30;;
48516;SDS011;34310;51.904;4.256;2023-05-15T00:36:55;5.85;;;5.35;;
48516;SDS011;34310;51.904;4.256;2023-05-15T00:39:22;6.20;;;5.60;;
48516;SDS011;34310;51.904;4.256;2023-05-15T00:41:50;5.95;;;5.45;;
48516;SDS011;34310;51.904;4.256;2023-05-15T00:44:18;5.80;;;5.30;;
48516;SDS011;34310;51.904;4.256;2023-05-15T00:46:47;6.25;;;5.65;;
48516;SDS011;34310;51.904;4.256;2023-05-15T00:49:17;6.85;;;5.80;;
48516;SDS011;34310;51.904;4.256;2023-05-15T00:51:47;6.00;;;5.50;;
48516;SDS011;34310;51.904;4.256;2023-05-15T00:54:15;5.72;;;5.32;;
48516;SDS011;34310;51.904;4.256;2023-05-15T00:56:42;6.15;;;5.65;;
48516;SDS011;34310;51.904;4.256;2023-05-15T00:59:11;6.13;;;5.53;;
48516;SDS011;34310;51.904;4.256;2023-05-15T01:01:39;6.10;;;5.60;;
48516;SDS011;34310;51.904;4.256;2023-05-15T01:04:06;6.68;;;5.97;;
48516;SDS011;34310;51.904;4.256;2023-05-15T01:06:33;6.30;;;5.80;;
48516;SDS011;34310;51.904;4.256;2023-05-15T01:09:01;5.85;;;5.35;;
48516;SDS011;34310;51.904;4.256;2023-05-15T01:11:31;6.60;;;6.07;;
48516;SDS011;34310;51.904;4.256;2023-05-15T01:14:04;6.25;;;5.75;;
48516;SDS011;34310;51.904;4.256;2023-05-15T01:16:32;6.57;;;5.97;;
48516;SDS011;34310;51.904;4.256;2023-05-15T01:19:01;6.63;;;6.05;;
48516;SDS011;34310;51.904;4.256;2023-05-15T01:24:10;6.50;;;5.90;;
48516;SDS011;34310;51.904;4.256;2023-05-15T01:29:25;6.53;;;6.03;;
48516;SDS011;34310;51.904;4.256;2023-05-15T01:31:55;6.78;;;6.18;;
48516;SDS011;34310;51.904;4.256;2023-05-15T01:34:29;7.43;;;6.72;;
48516;SDS011;34310;51.904;4.256;2023-05-15T01:37:09;7.03;;;6.43;;
48516;SDS011;34310;51.904;4.256;2023-05-15T01:39:39;6.93;;;6.22;;
48516;SDS011;34310;51.904;4.256;2023-05-15T01:42:12;6.88;;;6.28;;
48516;SDS011;34310;51.904;4.256;2023-05-15T01:44:43;7.40;;;6.35;;
48516;SDS011;34310;51.904;4.256;2023-05-15T01:47:19;6.75;;;6.13;;
48516;SDS011;34310;51.904;4.256;2023-05-15T01:49:50;6.45;;;5.93;;
48516;SDS011;34310;51.904;4.256;2023-05-15T01:52:33;7.15;;;6.53;;
48516;SDS011;34310;51.904;4.256;2023-05-15T01:55:07;7.22;;;6.53;;
48516;SDS011;34310;51.904;4.256;2023-05-15T01:57:35;6.78;;;6.10;;
48516;SDS011;34310;51.904;4.256;2023-05-15T02:00:03;7.05;;;6.45;;
48516;SDS011;34310;51.904;4.256;2023-05-15T02:02:32;7.20;;;6.50;;
48516;SDS011;34310;51.904;4.256;2023-05-15T02:05:00;6.18;;;5.63;;
48516;SDS011;34310;51.904;4.256;2023-05-15T02:07:27;6.97;;;6.38;;
48516;SDS011;34310;51.904;4.256;2023-05-15T02:09:56;6.82;;;6.22;;
48516;SDS011;34310;51.904;4.256;2023-05-15T02:12:25;6.93;;;6.38;;
48516;SDS011;34310;51.904;4.256;2023-05-15T02:14:53;6.80;;;6.20;;
48516;SDS011;34310;51.904;4.256;2023-05-15T02:17:22;6.60;;;6.07;;
48516;SDS011;34310;51.904;4.256;2023-05-15T02:19:50;7.03;;;6.32;;
48516;SDS011;34310;51.904;4.256;2023-05-15T02:22:17;6.78;;;6.18;;
48516;SDS011;34310;51.904;4.256;2023-05-15T02:24:45;6.82;;;6.22;;
48516;SDS011;34310;51.904;4.256;2023-05-15T02:27:23;6.93;;;6.22;;
48516;SDS011;34310;51.904;4.256;2023-05-15T02:32:30;6.72;;;6.13;;
48516;SDS011;34310;51.904;4.256;2023-05-15T02:37:39;6.88;;;6.28;;
48516;SDS011;34310;51.904;4.256;2023-05-15T02:40:11;7.03;;;6.43;;
48516;SDS011;34310;51.904;4.256;2023-05-15T02:42:41;6.72;;;6.05;;
48516;SDS011;34310;51.904;4.256;2023-05-15T02:45:11;6.47;;;5.88;;
48516;SDS011;34310;51.904;4.256;2023-05-15T02:47:39;7.03;;;6.30;;
48516;SDS011;34310;51.904;4.256;2023-05-15T02:50:07;6.25;;;5.72;;
48516;SDS011;34310;51.904;4.256;2023-05-15T02:52:35;6.90;;;6.30;;
48516;SDS011;34310;51.904;4.256;2023-05-15T02:55:03;6.57;;;5.97;;
48516;SDS011;34310;51.904;4.256;2023-05-15T02:57:31;6.78;;;6.18;;
48516;SDS011;34310;51.904;4.256;2023-05-15T02:59:59;7.43;;;6.28;;
48516;SDS011;34310;51.904;4.256;2023-05-15T03:02:26;6.88;;;6.28;;
48516;SDS011;34310;51.904;4.256;2023-05-15T03:04:54;6.72;;;6.20;;
48516;SDS011;34310;51.904;4.256;2023-05-15T03:07:21;6.97;;;6.35;;
48516;SDS011;34310;51.904;4.256;2023-05-15T03:09:48;6.97;;;6.38;;
48516;SDS011;34310;51.904;4.256;2023-05-15T03:12:16;6.88;;;6.22;;
48516;SDS011;34310;51.904;4.256;2023-05-15T03:14:43;7.45;;;6.55;;
48516;SDS011;34310;51.904;4.256;2023-05-15T03:17:10;7.85;;;6.78;;
48516;SDS011;34310;51.904;4.256;2023-05-15T03:19:38;7.22;;;6.55;;
48516;SDS011;34310;51.904;4.256;2023-05-15T03:22:06;7.55;;;6.90;;
48516;SDS011;34310;51.904;4.256;2023-05-15T03:24:33;6.82;;;6.22;;
48516;SDS011;34310;51.904;4.256;2023-05-15T03:27:00;6.82;;;6.22;;
48516;SDS011;34310;51.904;4.256;2023-05-15T03:29:28;7.30;;;6.57;;
48516;SDS011;34310;51.904;4.256;2023-05-15T03:31:55;7.25;;;6.63;;
48516;SDS011;34310;51.904;4.256;2023-05-15T03:34:23;7.32;;;6.68;;
48516;SDS011;34310;51.904;4.256;2023-05-15T03:36:50;7.50;;;6.80;;
48516;SDS011;34310;51.904;4.256;2023-05-15T03:39:17;7.40;;;6.70;;
48516;SDS011;34310;51.904;4.256;2023-05-15T03:41:45;6.97;;;6.35;;
48516;SDS011;34310;51.904;4.256;2023-05-15T03:44:12;6.70;;;6.07;;
48516;SDS011;34310;51.904;4.256;2023-05-15T03:46:39;7.00;;;6.30;;
48516;SDS011;34310;51.904;4.256;2023-05-15T03:49:07;7.00;;;6.43;;
48516;SDS011;34310;51.904;4.256;2023-05-15T03:51:34;7.57;;;6.88;;
48516;SDS011;34310;51.904;4.256;2023-05-15T03:54:02;7.25;;;6.55;;
48516;SDS011;34310;51.904;4.256;2023-05-15T03:56:31;7.25;;;6.55;;
48516;SDS011;34310;51.904;4.256;2023-05-15T03:58:58;6.38;;;5.88;;
48516;SDS011;34310;51.904;4.256;2023-05-15T04:01:25;7.18;;;6.57;;
48516;SDS011;34310;51.904;4.256;2023-05-15T04:03:53;7.68;;;6.88;;
48516;SDS011;34310;51.904;4.256;2023-05-15T04:06:20;6.78;;;6.18;;
48516;SDS011;34310;51.904;4.256;2023-05-15T04:08:48;6.97;;;6.38;;
48516;SDS011;34310;51.904;4.256;2023-05-15T04:11:15;6.82;;;6.00;;
48516;SDS011;34310;51.904;4.256;2023-05-15T04:13:43;7.43;;;6.60;;
48516;SDS011;34310;51.904;4.256;2023-05-15T04:16:10;7.50;;;6.72;;
48516;SDS011;34310;51.904;4.256;2023-05-15T04:18:38;6.53;;;5.90;;
48516;SDS011;34310;51.904;4.256;2023-05-15T04:21:05;7.28;;;6.57;;
48516;SDS011;34310;51.904;4.256;2023-05-15T04:23:32;6.82;;;6.22;;
48516;SDS011;34310;51.904;4.256;2023-05-15T04:26:00;6.57;;;5.97;;
48516;SDS011;34310;51.904;4.256;2023-05-15T04:28:27;6.32;;;5.72;;
48516;SDS011;34310;51.904;4.256;2023-05-15T04:30:55;6.88;;;6.28;;
48516;SDS011;34310;51.904;4.256;2023-05-15T04:33:24;7.30;;;6.60;;
48516;SDS011;34310;51.904;4.256;2023-05-15T04:35:51;6.80;;;6.20;;
48516;SDS011;34310;51.904;4.256;2023-05-15T04:38:19;7.22;;;6.55;;
48516;SDS011;34310;51.904;4.256;2023-05-15T04:40:46;7.43;;;6.72;;
48516;SDS011;34310;51.904;4.256;2023-05-15T04:43:14;7.45;;;6.85;;
48516;SDS011;34310;51.904;4.256;2023-05-15T04:45:42;7.00;;;6.40;;
48516;SDS011;34310;51.904;4.256;2023-05-15T04:48:09;7.28;;;6.57;;
48516;SDS011;34310;51.904;4.256;2023-05-15T04:50:36;7.30;;;6.60;;
48516;SDS011;34310;51.904;4.256;2023-05-15T04:53:03;7.28;;;6.68;;
48516;SDS011;34310;51.904;4.256;2023-05-15T04:55:31;7.38;;;6.60;;
48516;SDS011;34310;51.904;4.256;2023-05-15T04:57:59;7.95;;;7.25;;
48516;SDS011;34310;51.904;4.256;2023-05-15T05:00:27;7.60;;;6.90;;
48516;SDS011;34310;51.904;4.256;2023-05-15T05:02:54;7.47;;;6.78;;
48516;SDS011;34310;51.904;4.256;2023-05-15T05:05:22;7.78;;;7.07;;
48516;SDS011;34310;51.904;4.256;2023-05-15T05:07:49;7.93;;;7.13;;
48516;SDS011;34310;51.904;4.256;2023-05-15T05:10:17;8.20;;;7.50;;
48516;SDS011;34310;51.904;4.256;2023-05-15T05:12:44;7.72;;;7.03;;
48516;SDS011;34310;51.904;4.256;2023-05-15T05:15:12;8.27;;;7.57;;
48516;SDS011;34310;51.904;4.256;2023-05-15T05:17:39;8.07;;;7.38;;
48516;SDS011;34310;51.904;4.256;2023-05-15T05:20:06;8.35;;;7.65;;
48516;SDS011;34310;51.904;4.256;2023-05-15T05:22:38;8.18;;;7.40;;
48516;SDS011;34310;51.904;4.256;2023-05-15T05:25:06;8.07;;;7.38;;
48516;SDS011;34310;51.904;4.256;2023-05-15T05:27:33;8.25;;;7.53;;
48516;SDS011;34310;51.904;4.256;2023-05-15T05:30:00;8.90;;;8.05;;
48516;SDS011;34310;51.904;4.256;2023-05-15T05:32:28;8.70;;;7.90;;
48516;SDS011;34310;51.904;4.256;2023-05-15T05:34:55;8.63;;;7.82;;
48516;SDS011;34310;51.904;4.256;2023-05-15T05:37:23;8.80;;;7.93;;
48516;SDS011;34310;51.904;4.256;2023-05-15T05:39:51;8.45;;;7.65;;
48516;SDS011;34310;51.904;4.256;2023-05-15T05:42:18;9.35;;;8.43;;
48516;SDS011;34310;51.904;4.256;2023-05-15T05:44:45;9.27;;;8.45;;
48516;SDS011;34310;51.904;4.256;2023-05-15T05:47:12;9.02;;;8.15;;
48516;SDS011;34310;51.904;4.256;2023-05-15T05:49:40;8.27;;;7.47;;
48516;SDS011;34310;51.904;4.256;2023-05-15T05:52:07;9.80;;;8.20;;
48516;SDS011;34310;51.904;4.256;2023-05-15T05:54:35;9.02;;;8.23;;
48516;SDS011;34310;51.904;4.256;2023-05-15T05:57:02;9.20;;;8.38;;
48516;SDS011;34310;51.904;4.256;2023-05-15T05:59:30;9.45;;;8.55;;
48516;SDS011;34310;51.904;4.256;2023-05-15T06:01:57;9.32;;;8.43;;
48516;SDS011;34310;51.904;4.256;2023-05-15T06:04:24;8.73;;;7.93;;
48516;SDS011;34310;51.904;4.256;2023-05-15T06:06:52;9.75;;;8.68;;
48516;SDS011;34310;51.904;4.256;2023-05-15T06:09:19;9.27;;;8.45;;
48516;SDS011;34310;51.904;4.256;2023-05-15T06:11:47;9.35;;;8.50;;
48516;SDS011;34310;51.904;4.256;2023-05-15T06:14:14;9.60;;;8.60;;
48516;SDS011;34310;51.904;4.256;2023-05-15T06:16:41;9.48;;;8.57;;
48516;SDS011;34310;51.904;4.256;2023-05-15T06:19:09;11.00;;;9.90;;
48516;SDS011;34310;51.904;4.256;2023-05-15T06:21:36;10.50;;;9.48;;
48516;SDS011;34310;51.904;4.256;2023-05-15T06:24:03;10.45;;;9.20;;
48516;SDS011;34310;51.904;4.256;2023-05-15T06:26:31;10.65;;;9.65;;
48516;SDS011;34310;51.904;4.256;2023-05-15T06:28:58;11.27;;;10.02;;
48516;SDS011;34310;51.904;4.256;2023-05-15T06:31:26;10.18;;;9.27;;
48516;SDS011;34310;51.904;4.256;2023-05-15T06:33:53;10.45;;;9.50;;
48516;SDS011;34310;51.904;4.256;2023-05-15T06:36:20;10.43;;;9.32;;
48516;SDS011;34310;51.904;4.256;2023-05-15T06:38:48;10.80;;;9.70;;
48516;SDS011;34310;51.904;4.256;2023-05-15T06:41:15;10.77;;;9.68;;
48516;SDS011;34310;51.904;4.256;2023-05-15T06:43:42;10.98;;;9.88;;
48516;SDS011;34310;51.904;4.256;2023-05-15T06:46:10;11.32;;;10.13;;
48516;SDS011;34310;51.904;4.256;2023-05-15T06:48:37;13.15;;;10.13;;
48516;SDS011;34310;51.904;4.256;2023-05-15T06:51:04;12.27;;;10.20;;
48516;SDS011;34310;51.904;4.256;2023-05-15T06:53:32;12.75;;;10.57;;
48516;SDS011;34310;51.904;4.256;2023-05-15T06:55:59;12.13;;;10.77;;
48516;SDS011;34310;51.904;4.256;2023-05-15T06:58:26;12.07;;;10.88;;
48516;SDS011;34310;51.904;4.256;2023-05-15T07:00:54;12.18;;;10.88;;
48516;SDS011;34310;51.904;4.256;2023-05-15T07:03:22;11.77;;;10.57;;
48516;SDS011;34310;51.904;4.256;2023-05-15T07:05:50;11.95;;;10.73;;
48516;SDS011;34310;51.904;4.256;2023-05-15T07:08:18;12.80;;;11.20;;
48516;SDS011;34310;51.904;4.256;2023-05-15T07:10:45;12.27;;;11.07;;
48516;SDS011;34310;51.904;4.256;2023-05-15T07:13:16;12.63;;;11.43;;
48516;SDS011;34310;51.904;4.256;2023-05-15T07:15:45;12.30;;;10.98;;
48516;SDS011;34310;51.904;4.256;2023-05-15T07:18:12;13.98;;;12.00;;
48516;SDS011;34310;51.904;4.256;2023-05-15T07:20:39;12.63;;;11.25;;
48516;SDS011;34310;51.904;4.256;2023-05-15T07:23:07;13.18;;;11.80;;
48516;SDS011;34310;51.904;4.256;2023-05-15T07:25:34;13.88;;;11.65;;
48516;SDS011;34310;51.904;4.256;2023-05-15T07:28:02;12.20;;;10.73;;
48516;SDS011;34310;51.904;4.256;2023-05-15T07:30:29;13.07;;;11.77;;
48516;SDS011;34310;51.904;4.256;2023-05-15T07:32:56;15.23;;;11.68;;
48516;SDS011;34310;51.904;4.256;2023-05-15T07:35:24;13.40;;;12.00;;
48516;SDS011;34310;51.904;4.256;2023-05-15T07:37:52;13.75;;;12.35;;
48516;SDS011;34310;51.904;4.256;2023-05-15T07:40:19;14.55;;;13.05;;
48516;SDS011;34310;51.904;4.256;2023-05-15T07:42:47;14.05;;;12.60;;
48516;SDS011;34310;51.904;4.256;2023-05-15T07:45:14;13.77;;;12.38;;
48516;SDS011;34310;51.904;4.256;2023-05-15T07:47:43;14.88;;;12.45;;
48516;SDS011;34310;51.904;4.256;2023-05-15T07:50:12;13.30;;;11.98;;
48516;SDS011;34310;51.904;4.256;2023-05-15T07:52:40;14.65;;;13.18;;
48516;SDS011;34310;51.904;4.256;2023-05-15T07:55:08;14.30;;;12.57;;
48516;SDS011;34310;51.904;4.256;2023-05-15T07:57:36;14.57;;;13.07;;
48516;SDS011;34310;51.904;4.256;2023-05-15T08:00:05;14.80;;;13.30;;
48516;SDS011;34310;51.904;4.256;2023-05-15T08:02:39;14.75;;;13.30;;
48516;SDS011;34310;51.904;4.256;2023-05-15T08:05:06;17.02;;;14.13;;
48516;SDS011;34310;51.904;4.256;2023-05-15T08:07:34;16.48;;;14.00;;
48516;SDS011;34310;51.904;4.256;2023-05-15T08:10:01;16.17;;;14.27;;
48516;SDS011;34310;51.904;4.256;2023-05-15T08:12:31;16.05;;;13.43;;
48516;SDS011;34310;51.904;4.256;2023-05-15T08:14:59;15.45;;;13.88;;
48516;SDS011;34310;51.904;4.256;2023-05-15T08:17:26;16.63;;;14.80;;
48516;SDS011;34310;51.904;4.256;2023-05-15T08:19:54;15.95;;;14.25;;
48516;SDS011;34310;51.904;4.256;2023-05-15T08:22:21;15.65;;;13.93;;
48516;SDS011;34310;51.904;4.256;2023-05-15T08:24:48;16.30;;;14.60;;
48516;SDS011;34310;51.904;4.256;2023-05-15T08:27:16;16.90;;;14.52;;
48516;SDS011;34310;51.904;4.256;2023-05-15T08:29:43;17.55;;;14.77;;
48516;SDS011;34310;51.904;4.256;2023-05-15T08:32:11;16.58;;;14.88;;
48516;SDS011;34310;51.904;4.256;2023-05-15T08:34:38;18.83;;;14.88;;
48516;SDS011;34310;51.904;4.256;2023-05-15T08:37:05;17.52;;;15.25;;
48516;SDS011;34310;51.904;4.256;2023-05-15T08:39:33;17.80;;;15.43;;
48516;SDS011;34310;51.904;4.256;2023-05-15T08:42:04;18.67;;;15.50;;
48516;SDS011;34310;51.904;4.256;2023-05-15T08:44:39;15.98;;;14.35;;
48516;SDS011;34310;51.904;4.256;2023-05-15T08:47:07;17.92;;;16.00;;
48516;SDS011;34310;51.904;4.256;2023-05-15T08:49:55;17.27;;;15.35;;
48516;SDS011;34310;51.904;4.256;2023-05-15T08:52:29;17.00;;;15.23;;
48516;SDS011;34310;51.904;4.256;2023-05-15T08:54:58;17.23;;;15.30;;
48516;SDS011;34310;51.904;4.256;2023-05-15T08:57:26;18.20;;;16.17;;
48516;SDS011;34310;51.904;4.256;2023-05-15T08:59:54;17.35;;;15.40;;
48516;SDS011;34310;51.904;4.256;2023-05-15T09:02:22;18.33;;;15.35;;
48516;SDS011;34310;51.904;4.256;2023-05-15T09:04:51;17.27;;;15.25;;
48516;SDS011;34310;51.904;4.256;2023-05-15T09:07:18;16.70;;;14.90;;
48516;SDS011;34310;51.904;4.256;2023-05-15T09:09:46;17.27;;;15.45;;
48516;SDS011;34310;51.904;4.256;2023-05-15T09:12:14;20.23;;;15.52;;
48516;SDS011;34310;51.904;4.256;2023-05-15T09:14:42;22.75;;;16.33;;
48516;SDS011;34310;51.904;4.256;2023-05-15T09:17:10;25.27;;;15.52;;
48516;SDS011;34310;51.904;4.256;2023-05-15T09:19:38;22.15;;;15.20;;
48516;SDS011;34310;51.904;4.256;2023-05-15T09:22:13;25.00;;;15.20;;
48516;SDS011;34310;51.904;4.256;2023-05-15T09:24:48;19.20;;;14.07;;
48516;SDS011;34310;51.904;4.256;2023-05-15T09:27:18;17.33;;;14.20;;
48516;SDS011;34310;51.904;4.256;2023-05-15T09:29:46;15.82;;;13.70;;
48516;SDS011;34310;51.904;4.256;2023-05-15T09:32:16;15.70;;;13.00;;
48516;SDS011;34310;51.904;4.256;2023-05-15T09:34:44;16.75;;;13.35;;
48516;SDS011;34310;51.904;4.256;2023-05-15T09:37:26;14.50;;;13.00;;
48516;SDS011;34310;51.904;4.256;2023-05-15T09:40:07;15.70;;;12.70;;
48516;SDS011;34310;51.904;4.256;2023-05-15T09:42:36;14.02;;;12.52;;
48516;SDS011;34310;51.904;4.256;2023-05-15T09:45:04;14.48;;;12.25;;
48516;SDS011;34310;51.904;4.256;2023-05-15T09:47:32;14.10;;;12.68;;
48516;SDS011;34310;51.904;4.256;2023-05-15T09:50:00;14.98;;;12.63;;
48516;SDS011;34310;51.904;4.256;2023-05-15T09:52:27;15.15;;;13.07;;
48516;SDS011;34310;51.904;4.256;2023-05-15T09:54:55;16.13;;;13.52;;
48516;SDS011;34310;51.904;4.256;2023-05-15T09:57:23;16.17;;;13.15;;
48516;SDS011;34310;51.904;4.256;2023-05-15T09:59:50;14.13;;;12.23;;
48516;SDS011;34310;51.904;4.256;2023-05-15T10:02:24;13.02;;;11.55;;
48516;SDS011;34310;51.904;4.256;2023-05-15T10:05:00;13.38;;;11.77;;
48516;SDS011;34310;51.904;4.256;2023-05-15T10:09:56;13.15;;;10.88;;
48516;SDS011;34310;51.904;4.256;2023-05-15T10:12:24;12.15;;;10.15;;
48516;SDS011;34310;51.904;4.256;2023-05-15T10:14:56;11.68;;;9.70;;
48516;SDS011;34310;51.904;4.256;2023-05-15T10:17:30;11.50;;;9.30;;
48516;SDS011;34310;51.904;4.256;2023-05-15T10:19:59;9.20;;;8.17;;
48516;SDS011;34310;51.904;4.256;2023-05-15T10:22:34;10.48;;;8.45;;
48516;SDS011;34310;51.904;4.256;2023-05-15T10:28:10;10.07;;;7.43;;
48516;SDS011;34310;51.904;4.256;2023-05-15T10:30:37;8.93;;;6.90;;
48516;SDS011;34310;51.904;4.256;2023-05-15T10:33:05;7.43;;;6.60;;
48516;SDS011;34310;51.904;4.256;2023-05-15T10:35:33;7.38;;;6.00;;
48516;SDS011;34310;51.904;4.256;2023-05-15T10:38:03;8.18;;;6.68;;
48516;SDS011;34310;51.904;4.256;2023-05-15T10:40:32;9.20;;;6.43;;
48516;SDS011;34310;51.904;4.256;2023-05-15T10:43:03;7.45;;;5.75;;
48516;SDS011;34310;51.904;4.256;2023-05-15T10:45:31;6.45;;;5.60;;
48516;SDS011;34310;51.904;4.256;2023-05-15T10:48:00;6.20;;;5.22;;
48516;SDS011;34310;51.904;4.256;2023-05-15T10:50:30;6.35;;;5.55;;
48516;SDS011;34310;51.904;4.256;2023-05-15T10:52:58;7.95;;;5.75;;
48516;SDS011;34310;51.904;4.256;2023-05-15T10:55:26;6.72;;;5.40;;
48516;SDS011;34310;51.904;4.256;2023-05-15T10:57:55;8.18;;;5.70;;
48516;SDS011;34310;51.904;4.256;2023-05-15T11:00:27;6.80;;;5.72;;
48516;SDS011;34310;51.904;4.256;2023-05-15T11:02:56;9.65;;;6.25;;
48516;SDS011;34310;51.904;4.256;2023-05-15T11:05:24;7.03;;;5.80;;
48516;SDS011;34310;51.904;4.256;2023-05-15T11:10:51;6.47;;;5.15;;
48516;SDS011;34310;51.904;4.256;2023-05-15T11:13:19;6.03;;;4.90;;
48516;SDS011;34310;51.904;4.256;2023-05-15T11:15:47;7.28;;;5.03;;
48516;SDS011;34310;51.904;4.256;2023-05-15T11:18:15;6.32;;;4.70;;
48516;SDS011;34310;51.904;4.256;2023-05-15T11:23:20;7.63;;;4.93;;
48516;SDS011;34310;51.904;4.256;2023-05-15T11:25:51;7.80;;;4.82;;
48516;SDS011;34310;51.904;4.256;2023-05-15T11:28:21;6.55;;;4.55;;
48516;SDS011;34310;51.904;4.256;2023-05-15T11:30:51;5.05;;;4.43;;
48516;SDS011;34310;51.904;4.256;2023-05-15T11:33:24;6.85;;;4.90;;
48516;SDS011;34310;51.904;4.256;2023-05-15T11:35:58;6.20;;;4.68;;
48516;SDS011;34310;51.904;4.256;2023-05-15T11:38:26;6.72;;;4.57;;
48516;SDS011;34310;51.904;4.256;2023-05-15T11:41:01;8.25;;;4.13;;
48516;SDS011;34310;51.904;4.256;2023-05-15T11:43:41;6.97;;;4.10;;
48516;SDS011;34310;51.904;4.256;2023-05-15T11:46:09;7.65;;;4.18;;
48516;SDS011;34310;51.904;4.256;2023-05-15T11:48:42;10.27;;;4.90;;
48516;SDS011;34310;51.904;4.256;2023-05-15T11:53:51;8.15;;;5.05;;
48516;SDS011;34310;51.904;4.256;2023-05-15T11:56:20;7.28;;;4.00;;
48516;SDS011;34310;51.904;4.256;2023-05-15T11:58:49;13.40;;;3.78;;
48516;SDS011;34310;51.904;4.256;2023-05-15T12:01:20;11.38;;;4.28;;
48516;SDS011;34310;51.904;4.256;2023-05-15T12:03:48;12.00;;;4.20;;
48516;SDS011;34310;51.904;4.256;2023-05-15T12:06:16;9.05;;;3.50;;
48516;SDS011;34310;51.904;4.256;2023-05-15T12:08:48;11.90;;;3.97;;
48516;SDS011;34310;51.904;4.256;2023-05-15T12:11:23;9.07;;;3.55;;
48516;SDS011;34310;51.904;4.256;2023-05-15T12:13:51;5.18;;;2.92;;
48516;SDS011;34310;51.904;4.256;2023-05-15T12:16:26;7.10;;;3.25;;
48516;SDS011;34310;51.904;4.256;2023-05-15T12:18:55;6.43;;;3.20;;
48516;SDS011;34310;51.904;4.256;2023-05-15T12:21:25;6.90;;;2.92;;
48516;SDS011;34310;51.904;4.256;2023-05-15T12:23:53;6.05;;;2.88;;
48516;SDS011;34310;51.904;4.256;2023-05-15T12:26:23;6.05;;;2.72;;
48516;SDS011;34310;51.904;4.256;2023-05-15T12:28:54;5.18;;;2.60;;
48516;SDS011;34310;51.904;4.256;2023-05-15T12:31:22;7.25;;;3.17;;
48516;SDS011;34310;51.904;4.256;2023-05-15T12:33:49;4.57;;;2.33;;
48516;SDS011;34310;51.904;4.256;2023-05-15T12:36:18;6.20;;;2.92;;
48516;SDS011;34310;51.904;4.256;2023-05-15T12:38:47;5.85;;;2.50;;
48516;SDS011;34310;51.904;4.256;2023-05-15T12:41:14;6.35;;;2.80;;
48516;SDS011;34310;51.904;4.256;2023-05-15T12:43:42;6.97;;;2.67;;
48516;SDS011;34310;51.904;4.256;2023-05-15T12:46:09;4.85;;;2.80;;
48516;SDS011;34310;51.904;4.256;2023-05-15T12:48:40;7.25;;;2.60;;
48516;SDS011;34310;51.904;4.256;2023-05-15T12:51:08;6.15;;;2.30;;
48516;SDS011;34310;51.904;4.256;2023-05-15T12:53:35;6.18;;;2.67;;
48516;SDS011;34310;51.904;4.256;2023-05-15T12:56:05;9.32;;;2.95;;
48516;SDS011;34310;51.904;4.256;2023-05-15T12:58:34;8.40;;;3.17;;
48516;SDS011;34310;51.904;4.256;2023-05-15T13:01:03;7.70;;;2.88;;
48516;SDS011;34310;51.904;4.256;2023-05-15T13:03:31;6.32;;;2.80;;
48516;SDS011;34310;51.904;4.256;2023-05-15T13:06:00;8.60;;;3.28;;
48516;SDS011;34310;51.904;4.256;2023-05-15T13:08:28;8.20;;;2.78;;
48516;SDS011;34310;51.904;4.256;2023-05-15T13:10:57;8.80;;;2.90;;
48516;SDS011;34310;51.904;4.256;2023-05-15T13:16:21;7.03;;;2.42;;
48516;SDS011;34310;51.904;4.256;2023-05-15T13:18:55;5.47;;;2.70;;
48516;SDS011;34310;51.904;4.256;2023-05-15T13:21:24;5.22;;;2.45;;
48516;SDS011;34310;51.904;4.256;2023-05-15T13:23:51;5.07;;;2.50;;
48516;SDS011;34310;51.904;4.256;2023-05-15T13:26:18;6.85;;;2.95;;
48516;SDS011;34310;51.904;4.256;2023-05-15T13:28:46;5.85;;;2.58;;
48516;SDS011;34310;51.904;4.256;2023-05-15T13:31:13;5.43;;;2.15;;
48516;SDS011;34310;51.904;4.256;2023-05-15T13:33:40;5.35;;;2.20;;
48516;SDS011;34310;51.904;4.256;2023-05-15T13:36:08;5.15;;;2.45;;
48516;SDS011;34310;51.904;4.256;2023-05-15T13:38:35;4.88;;;2.20;;
48516;SDS011;34310;51.904;4.256;2023-05-15T13:41:03;3.95;;;2.15;;
48516;SDS011;34310;51.904;4.256;2023-05-15T13:43:30;3.58;;;2.03;;
48516;SDS011;34310;51.904;4.256;2023-05-15T13:45:58;5.03;;;2.53;;
48516;SDS011;34310;51.904;4.256;2023-05-15T13:48:25;4.40;;;2.05;;
48516;SDS011;34310;51.904;4.256;2023-05-15T13:50:52;7.07;;;2.28;;
48516;SDS011;34310;51.904;4.256;2023-05-15T13:53:20;4.15;;;2.03;;
48516;SDS011;34310;51.904;4.256;2023-05-15T13:55:47;6.20;;;2.38;;
48516;SDS011;34310;51.904;4.256;2023-05-15T13:58:14;6.20;;;1.90;;
48516;SDS011;34310;51.904;4.256;2023-05-15T14:00:42;5.85;;;2.40;;
48516;SDS011;34310;51.904;4.256;2023-05-15T14:03:10;5.63;;;2.08;;
48516;SDS011;34310;51.904;4.256;2023-05-15T14:05:40;4.47;;;2.10;;
48516;SDS011;34310;51.904;4.256;2023-05-15T14:08:07;3.65;;;2.13;;
48516;SDS011;34310;51.904;4.256;2023-05-15T14:10:35;4.18;;;2.22;;
48516;SDS011;34310;51.904;4.256;2023-05-15T14:13:02;5.07;;;2.08;;
48516;SDS011;34310;51.904;4.256;2023-05-15T14:15:30;4.55;;;1.95;;
48516;SDS011;34310;51.904;4.256;2023-05-15T14:17:57;2.97;;;1.90;;
48516;SDS011;34310;51.904;4.256;2023-05-15T14:20:25;3.47;;;1.60;;
48516;SDS011;34310;51.904;4.256;2023-05-15T14:22:52;5.07;;;1.90;;
48516;SDS011;34310;51.904;4.256;2023-05-15T14:25:20;4.03;;;1.88;;
48516;SDS011;34310;51.904;4.256;2023-05-15T14:27:47;4.82;;;2.00;;
48516;SDS011;34310;51.904;4.256;2023-05-15T14:30:14;4.25;;;2.08;;
48516;SDS011;34310;51.904;4.256;2023-05-15T14:32:42;3.67;;;1.90;;
48516;SDS011;34310;51.904;4.256;2023-05-15T14:35:09;1.98;;;1.35;;
48516;SDS011;34310;51.904;4.256;2023-05-15T14:37:36;3.22;;;1.80;;
48516;SDS011;34310;51.904;4.256;2023-05-15T14:40:04;3.95;;;1.90;;
48516;SDS011;34310;51.904;4.256;2023-05-15T14:42:33;5.57;;;1.88;;
48516;SDS011;34310;51.904;4.256;2023-05-15T14:45:00;4.35;;;1.90;;
48516;SDS011;34310;51.904;4.256;2023-05-15T14:47:28;4.38;;;2.08;;
48516;SDS011;34310;51.904;4.256;2023-05-15T14:49:55;3.63;;;1.60;;
48516;SDS011;34310;51.904;4.256;2023-05-15T14:52:22;5.05;;;1.80;;
48516;SDS011;34310;51.904;4.256;2023-05-15T14:54:50;4.13;;;1.92;;
48516;SDS011;34310;51.904;4.256;2023-05-15T14:57:34;5.28;;;1.90;;
48516;SDS011;34310;51.904;4.256;2023-05-15T15:00:02;4.18;;;1.83;;
48516;SDS011;34310;51.904;4.256;2023-05-15T15:02:31;3.22;;;1.60;;
48516;SDS011;34310;51.904;4.256;2023-05-15T15:04:59;3.97;;;2.00;;
48516;SDS011;34310;51.904;4.256;2023-05-15T15:07:27;4.30;;;1.90;;
48516;SDS011;34310;51.904;4.256;2023-05-15T15:09:57;4.22;;;1.75;;
48516;SDS011;34310;51.904;4.256;2023-05-15T15:12:25;2.75;;;1.65;;
48516;SDS011;34310;51.904;4.256;2023-05-15T15:14:52;2.78;;;1.48;;